createdAt,value
2018-12-26T00:04:26.613Z,99.900002
2018-12-26T00:09:27.582Z,99.900002
2018-12-26T00:14:29.923Z,99.900002
2018-12-26T00:19:32.358Z,99.900002
2018-12-26T00:24:34.475Z,99.900002
2018-12-26T00:29:36.769Z,99.900002
2018-12-26T00:39:41.290Z,99.900002
2018-12-26T00:44:43.647Z,99.900002
2018-12-26T00:49:45.898Z,99.900002
2018-12-26T00:54:48.337Z,99.900002
2018-12-26T00:59:50.508Z,99.900002
2018-12-26T01:05:06.653Z,99.900002
2018-12-26T01:09:56.253Z,99.900002
2018-12-26T01:14:59.162Z,99.900002
2018-12-26T01:19:59.794Z,99.900002
2018-12-26T01:25:02.127Z,99.900002
2018-12-26T01:30:04.298Z,99.900002
2018-12-26T01:35:06.611Z,99.900002
2018-12-26T01:40:08.964Z,99.900002
2018-12-26T01:45:11.167Z,99.900002
2018-12-26T01:50:13.482Z,99.900002
2018-12-26T01:55:15.837Z,99.900002
2018-12-26T02:00:18.050Z,99.900002
2018-12-26T02:05:20.408Z,99.900002
2018-12-26T02:10:22.635Z,99.900002
2018-12-26T02:15:24.937Z,99.900002
2018-12-26T02:20:27.238Z,99.900002
2018-12-26T02:25:29.503Z,99.900002
2018-12-26T02:30:31.729Z,99.900002
2018-12-26T02:35:34.072Z,99.900002
2018-12-26T02:40:36.380Z,99.900002
2018-12-26T02:45:40.098Z,99.900002
2018-12-26T02:50:41.056Z,99.900002
2018-12-26T02:55:43.365Z,99.900002
2018-12-26T03:00:46.528Z,99.900002
2018-12-26T03:05:47.818Z,99.900002
2018-12-26T03:10:50.237Z,99.900002
2018-12-26T03:20:54.689Z,99.900002
2018-12-26T03:25:57.077Z,99.900002
2018-12-26T03:30:59.390Z,99.900002
2018-12-26T03:36:01.635Z,99.900002
2018-12-26T03:41:03.893Z,99.900002
2018-12-26T03:46:06.202Z,99.900002
2018-12-26T03:51:08.580Z,99.900002
2018-12-26T03:56:10.798Z,99.900002
2018-12-26T04:01:13.109Z,99.900002
2018-12-26T04:06:15.479Z,99.900002
2018-12-26T04:11:17.770Z,99.900002
2018-12-26T04:16:19.952Z,99.900002
2018-12-26T04:26:24.572Z,99.900002
2018-12-26T04:31:26.816Z,99.900002
2018-12-26T04:36:29.121Z,99.900002
2018-12-26T04:41:31.486Z,99.900002
2018-12-26T04:46:33.711Z,99.900002
2018-12-26T04:51:36.005Z,99.900002
2018-12-26T04:56:38.402Z,99.900002
2018-12-26T05:01:42.184Z,99.900002
2018-12-26T05:06:42.953Z,99.900002
2018-12-26T05:11:45.293Z,99.900002
2018-12-26T05:16:47.510Z,99.900002
2018-12-26T05:21:49.799Z,99.900002
2018-12-26T05:26:52.037Z,99.900002
2018-12-26T05:31:54.456Z,99.900002
2018-12-26T05:36:56.762Z,99.900002
2018-12-26T05:41:59.041Z,99.900002
2018-12-26T05:47:01.268Z,99.900002
2018-12-26T05:52:03.609Z,99.900002
2018-12-26T05:57:05.845Z,99.900002
2018-12-26T06:02:10.391Z,99.900002
2018-12-26T06:07:10.438Z,99.900002
2018-12-26T06:12:12.911Z,99.900002
2018-12-26T06:22:20.868Z,99.900002
2018-12-26T06:27:22.424Z,99.900002
2018-12-26T06:32:24.627Z,99.900002
2018-12-26T06:37:27.072Z,99.900002
2018-12-26T06:42:29.442Z,99.900002
2018-12-26T06:47:31.634Z,99.900002
2018-12-26T06:52:34.034Z,99.900002
2018-12-26T06:57:36.113Z,99.900002
2018-12-26T07:02:38.521Z,99.900002
2018-12-26T07:07:40.897Z,99.900002
2018-12-26T07:12:43.052Z,99.900002
2018-12-26T07:17:45.249Z,99.900002
2018-12-26T07:22:47.711Z,99.900002
2018-12-26T07:27:49.987Z,99.900002
2018-12-26T07:32:52.140Z,99.900002
2018-12-26T07:37:54.534Z,99.900002
2018-12-26T07:42:56.860Z,99.900002
2018-12-26T07:47:59.112Z,99.900002
2018-12-26T07:53:01.397Z,99.900002
2018-12-26T07:58:03.641Z,99.900002
2018-12-26T08:03:05.994Z,99.900002
2018-12-26T08:08:08.383Z,99.900002
2018-12-26T08:13:10.787Z,99.900002
2018-12-26T08:18:12.997Z,99.900002
2018-12-26T08:23:15.163Z,99.900002
2018-12-26T08:28:26.312Z,99.900002
2018-12-26T08:33:19.845Z,99.900002
2018-12-26T08:38:22.162Z,99.900002
2018-12-26T08:43:24.248Z,99.900002
2018-12-26T08:48:26.567Z,99.900002
2018-12-26T08:53:29.064Z,99.900002
2018-12-26T08:58:35.265Z,99.900002
2018-12-26T09:03:33.450Z,99.900002
2018-12-26T09:08:35.901Z,99.900002
2018-12-26T09:13:38.025Z,99.900002
2018-12-26T09:18:40.344Z,99.900002
2018-12-26T09:23:42.660Z,99.900002
2018-12-26T09:28:44.960Z,99.900002
2018-12-26T09:33:47.402Z,99.900002
2018-12-26T09:38:49.582Z,99.900002
2018-12-26T09:43:51.860Z,99.900002
2018-12-26T09:48:54.247Z,99.900002
2018-12-26T09:53:56.536Z,99.900002
2018-12-26T09:58:58.679Z,99.900002
2018-12-26T10:04:01.147Z,99.900002
2018-12-26T10:09:03.342Z,99.900002
2018-12-26T10:14:05.717Z,99.900002
2018-12-26T10:19:07.933Z,99.900002
2018-12-26T10:24:10.224Z,99.900002
2018-12-26T10:29:12.438Z,99.900002
2018-12-26T10:34:14.877Z,99.900002
2018-12-26T10:39:17.013Z,99.900002
2018-12-26T10:44:19.335Z,99.900002
2018-12-26T10:49:21.703Z,99.900002
2018-12-26T10:54:24.001Z,99.900002
2018-12-26T10:59:26.302Z,99.900002
2018-12-26T11:04:28.604Z,99.900002
2018-12-26T11:09:30.794Z,99.900002
2018-12-26T11:14:33.226Z,99.900002
2018-12-26T11:19:35.453Z,99.900002
2018-12-26T11:24:37.708Z,99.900002
2018-12-26T11:29:40.083Z,99.900002
2018-12-26T11:34:42.339Z,99.900002
2018-12-26T11:39:44.656Z,99.900002
2018-12-26T11:44:46.976Z,99.900002
2018-12-26T11:49:49.219Z,99.900002
2018-12-26T11:54:51.516Z,94.900002
2018-12-26T11:59:53.824Z,91.699997
2018-12-26T12:04:56.118Z,94.599998
2018-12-26T12:09:58.466Z,95.800003
2018-12-26T12:15:00.660Z,97.800003
2018-12-26T12:20:03.015Z,97.300003
2018-12-26T12:25:05.190Z,97.300003
2018-12-26T12:32:07.698Z,99
2018-12-26T12:35:09.902Z,98.599998
2018-12-26T12:40:12.143Z,99.699997
2018-12-26T12:45:14.468Z,99.900002
2018-12-26T12:50:16.809Z,99.699997
2018-12-26T12:55:19.068Z,97.199997
2018-12-26T13:00:21.406Z,98
2018-12-26T13:05:23.632Z,96.900002
2018-12-26T13:15:38.172Z,95.5
2018-12-26T13:20:40.488Z,95.099998
2018-12-26T13:25:42.913Z,95.800003
2018-12-26T13:30:45.061Z,95.400002
2018-12-26T13:35:47.535Z,95.199997
2018-12-26T13:40:49.675Z,94.900002
2018-12-26T13:45:51.967Z,95.400002
2018-12-26T13:50:54.187Z,95.300003
2018-12-26T13:55:56.600Z,95.699997
2018-12-26T14:00:58.819Z,97.099998
2018-12-26T14:06:01.212Z,97.099998
2018-12-26T14:11:03.427Z,93.599998
2018-12-26T14:16:05.709Z,92.800003
2018-12-26T14:21:08.053Z,92.300003
2018-12-26T14:26:10.257Z,89.699997
2018-12-26T14:31:12.772Z,90
2018-12-26T14:36:14.955Z,93.699997
2018-12-26T14:41:17.151Z,91.900002
2018-12-26T14:46:19.466Z,93.199997
2018-12-26T14:51:26.431Z,93.199997
2018-12-26T14:56:24.231Z,94
2018-12-26T15:01:26.429Z,96.199997
2018-12-26T15:06:28.631Z,97.400002
2018-12-26T15:11:31.021Z,97.5
2018-12-26T15:16:33.185Z,94.900002
2018-12-26T15:21:35.604Z,95.400002
2018-12-26T15:26:37.882Z,97
2018-12-26T15:31:40.166Z,99.099998
2018-12-26T15:36:42.438Z,99.900002
2018-12-26T15:41:44.660Z,99.900002
2018-12-26T15:46:46.982Z,99.900002
2018-12-26T15:51:49.332Z,99.900002
2018-12-26T15:56:51.599Z,99.900002
2018-12-26T16:01:53.816Z,99.900002
2018-12-26T16:06:56.300Z,99.900002
2018-12-26T16:11:58.611Z,99.900002
2018-12-26T16:17:00.710Z,99.900002
2018-12-26T16:22:03.127Z,99.900002
2018-12-26T16:27:05.386Z,99.900002
2018-12-26T16:32:07.644Z,99.900002
2018-12-26T16:37:09.963Z,99.900002
2018-12-26T16:42:12.346Z,99.900002
2018-12-26T16:47:14.522Z,99.900002
2018-12-26T16:52:16.773Z,99.900002
2018-12-26T16:57:19.264Z,99.900002
2018-12-26T17:02:21.470Z,99.900002
2018-12-26T17:07:23.754Z,99.900002
2018-12-26T17:12:26.014Z,99.900002
2018-12-26T17:17:28.321Z,99.900002
2018-12-26T17:22:30.702Z,99.900002
2018-12-26T17:27:32.813Z,99.900002
2018-12-26T17:32:35.262Z,99.900002
2018-12-26T17:37:37.486Z,99.900002
2018-12-26T17:42:39.770Z,99.900002
2018-12-26T17:47:42.134Z,99.900002
2018-12-26T17:52:44.401Z,99.900002
2018-12-26T17:57:46.662Z,99.900002
2018-12-26T18:02:48.996Z,99.900002
2018-12-26T18:07:51.259Z,99.900002
2018-12-26T18:12:53.561Z,99.900002
2018-12-26T18:17:55.909Z,99.900002
2018-12-26T18:22:58.030Z,99.900002
2018-12-26T18:28:00.367Z,99.900002
2018-12-26T18:33:02.746Z,99.900002
2018-12-26T18:38:05.023Z,99.900002
2018-12-26T18:43:07.294Z,99.900002
2018-12-26T18:48:09.657Z,99.900002
2018-12-26T18:53:11.946Z,99.900002
2018-12-26T18:58:14.211Z,99.900002
2018-12-26T19:03:16.472Z,99.900002
2018-12-26T19:08:18.794Z,99.900002
2018-12-26T19:13:21.105Z,99.900002
2018-12-26T19:18:23.461Z,99.900002
2018-12-26T19:23:25.655Z,99.900002
2018-12-26T19:28:27.994Z,99.900002
2018-12-26T19:33:30.236Z,99.900002
2018-12-26T19:38:32.550Z,99.900002
2018-12-26T19:43:34.829Z,99.900002
2018-12-26T19:48:37.129Z,99.900002
2018-12-26T19:53:39.436Z,99.900002
2018-12-26T19:58:41.717Z,99.900002
2018-12-26T20:03:43.954Z,99.900002
2018-12-26T20:08:46.252Z,99.900002
2018-12-26T20:13:48.670Z,99.900002
2018-12-26T20:18:50.869Z,99.900002
2018-12-26T20:23:53.198Z,99.900002
2018-12-26T20:28:55.585Z,99.900002
2018-12-26T20:33:57.814Z,99.900002
2018-12-26T20:39:00.012Z,99.900002
2018-12-26T20:44:02.416Z,99.900002
2018-12-26T20:49:04.582Z,99.900002
2018-12-26T20:54:06.918Z,99.900002
2018-12-26T20:59:09.228Z,99.900002
2018-12-26T21:04:11.562Z,99.900002
2018-12-26T21:09:13.880Z,99.900002
2018-12-26T21:14:16.083Z,99.900002
2018-12-26T21:19:18.530Z,99.900002
2018-12-26T21:24:20.718Z,99.900002
2018-12-26T21:29:23.091Z,99.900002
2018-12-26T21:34:26.341Z,99.900002
2018-12-26T21:39:27.582Z,99.900002
2018-12-26T21:44:29.787Z,99.900002
2018-12-26T21:49:32.098Z,99.900002
2018-12-26T21:54:34.484Z,99.900002
2018-12-26T21:59:36.815Z,99.900002
2018-12-26T22:04:39.125Z,99.900002
2018-12-26T22:09:41.366Z,99.900002
2018-12-26T22:14:43.604Z,99.900002
2018-12-26T22:19:45.902Z,99.900002
2018-12-26T22:24:48.247Z,99.900002
2018-12-26T22:29:50.624Z,99.900002
2018-12-26T22:34:52.802Z,99.900002
2018-12-26T22:39:55.061Z,99.900002
2018-12-26T22:44:57.467Z,99.900002
2018-12-26T22:49:59.608Z,99.900002
2018-12-26T22:55:02.048Z,99.900002
2018-12-26T23:00:04.227Z,99.900002
2018-12-26T23:05:06.582Z,99.900002
2018-12-26T23:10:08.820Z,99.900002
2018-12-26T23:15:11.228Z,99.900002
2018-12-26T23:20:15.289Z,99.900002
2018-12-26T23:25:17.028Z,99.900002
2018-12-26T23:30:18.168Z,99.900002
2018-12-26T23:35:20.263Z,99.900002
2018-12-26T23:40:22.678Z,99.900002
2018-12-26T23:45:24.952Z,99.900002
2018-12-26T23:50:27.217Z,99.900002
